createdAt,value
2018-04-23T00:00:45.485Z,11.27
2018-04-23T00:02:48.214Z,12.50
2018-04-23T00:04:50.937Z,12.00
2018-04-23T00:06:53.646Z,12.20
2018-04-23T00:08:56.390Z,12.67
2018-04-23T00:10:59.128Z,12.83
2018-04-23T00:13:01.833Z,14.53
2018-04-23T00:15:04.653Z,11.93
2018-04-23T00:17:07.399Z,14.67
2018-04-23T00:19:10.388Z,25.93
2018-04-23T00:21:13.517Z,16.00
2018-04-23T00:23:16.242Z,15.20
2018-04-23T00:25:19.228Z,14.77
2018-04-23T00:27:22.247Z,13.20
2018-04-23T00:29:25.521Z,12.50
2018-04-23T00:31:28.459Z,11.77
2018-04-23T00:33:31.651Z,12.37
2018-04-23T00:35:34.541Z,13.10
2018-04-23T00:37:38.154Z,12.40
2018-04-23T00:39:41.316Z,11.90
2018-04-23T00:41:44.403Z,12.27
2018-04-23T00:43:47.110Z,16.93
2018-04-23T00:45:50.078Z,15.40
2018-04-23T00:47:52.779Z,11.67
2018-04-23T00:49:56.334Z,14.57
2018-04-23T00:52:00.060Z,13.77
2018-04-23T00:54:03.260Z,11.53
2018-04-23T00:56:06.117Z,14.10
2018-04-23T00:58:09.092Z,14.23
2018-04-23T01:00:11.851Z,13.20
2018-04-23T01:02:14.569Z,13.00
2018-04-23T01:04:17.599Z,14.10
2018-04-23T01:06:20.331Z,14.83
2018-04-23T01:08:23.068Z,14.33
2018-04-23T01:10:25.807Z,15.50
2018-04-23T01:12:28.533Z,15.27
2018-04-23T01:14:31.267Z,14.40
2018-04-23T01:16:33.995Z,17.03
2018-04-23T01:18:36.731Z,14.80
2018-04-23T01:20:39.475Z,15.53
2018-04-23T01:22:42.217Z,16.67
2018-04-23T01:24:44.925Z,14.47
2018-04-23T01:26:47.655Z,14.27
2018-04-23T01:28:50.399Z,18.00
2018-04-23T01:30:53.117Z,15.57
2018-04-23T01:32:55.841Z,14.50
2018-04-23T01:34:58.582Z,14.30
2018-04-23T01:37:01.297Z,13.90
2018-04-23T01:39:04.034Z,13.20
2018-04-23T01:41:06.765Z,12.80
2018-04-23T01:43:09.505Z,13.00
2018-04-23T01:45:12.231Z,15.00
2018-04-23T01:47:14.932Z,12.80
2018-04-23T01:49:17.666Z,12.10
2018-04-23T01:51:20.390Z,12.73
2018-04-23T01:53:23.104Z,12.67
2018-04-23T01:55:25.855Z,12.67
2018-04-23T01:57:28.587Z,12.77
2018-04-23T01:59:31.319Z,12.53
2018-04-23T02:01:34.054Z,12.60
2018-04-23T02:03:36.781Z,12.37
2018-04-23T02:05:39.489Z,11.47
2018-04-23T02:07:42.195Z,11.90
2018-04-23T02:09:44.907Z,13.67
2018-04-23T02:11:47.633Z,16.00
2018-04-23T02:13:50.342Z,12.73
2018-04-23T02:15:53.062Z,12.63
2018-04-23T02:17:55.772Z,11.40
2018-04-23T02:19:58.509Z,14.17
2018-04-23T02:22:01.211Z,14.70
2018-04-23T02:24:03.962Z,11.20
2018-04-23T02:26:06.691Z,12.87
2018-04-23T02:28:09.423Z,12.57
2018-04-23T02:30:12.274Z,12.13
2018-04-23T02:32:14.993Z,11.10
2018-04-23T02:34:17.719Z,16.27
2018-04-23T02:36:20.453Z,12.33
2018-04-23T02:38:23.172Z,12.30
2018-04-23T02:40:25.899Z,14.10
2018-04-23T02:42:28.618Z,13.40
2018-04-23T02:44:31.345Z,12.10
2018-04-23T02:46:34.090Z,12.70
2018-04-23T02:48:36.819Z,10.97
2018-04-23T02:50:39.545Z,12.63
2018-04-23T02:52:42.353Z,13.30
2018-04-23T02:54:45.324Z,12.80
2018-04-23T02:56:48.031Z,12.67
2018-04-23T02:58:50.738Z,12.57
2018-04-23T03:00:53.467Z,13.77
2018-04-23T03:02:56.184Z,14.20
2018-04-23T03:04:58.886Z,14.63
2018-04-23T03:07:01.615Z,14.50
2018-04-23T03:09:04.333Z,14.27
2018-04-23T03:11:07.057Z,13.33
2018-04-23T03:13:09.967Z,13.50
2018-04-23T03:15:12.683Z,14.70
2018-04-23T03:17:15.402Z,12.63
2018-04-23T03:19:18.133Z,12.97
2018-04-23T03:21:20.863Z,13.40
2018-04-23T03:23:23.570Z,12.73
2018-04-23T03:25:26.295Z,20.20
2018-04-23T03:27:29.011Z,13.07
2018-04-23T03:29:31.755Z,12.93
2018-04-23T03:31:34.510Z,15.80
2018-04-23T03:33:37.237Z,14.80
2018-04-23T03:35:39.959Z,16.53
2018-04-23T03:37:42.699Z,13.43
2018-04-23T03:39:45.422Z,17.17
2018-04-23T03:41:48.140Z,15.23
2018-04-23T03:43:50.891Z,13.90
2018-04-23T03:45:53.609Z,14.93
2018-04-23T03:47:56.339Z,14.00
2018-04-23T03:49:59.326Z,14.70
2018-04-23T03:52:02.063Z,15.13
2018-04-23T03:54:04.777Z,16.00
2018-04-23T03:56:07.502Z,14.43
2018-04-23T03:58:10.261Z,13.90
2018-04-23T04:00:12.975Z,16.33
2018-04-23T04:02:15.710Z,15.23
2018-04-23T04:04:18.431Z,17.00
2018-04-23T04:06:21.138Z,16.43
2018-04-23T04:08:23.868Z,14.07
2018-04-23T04:10:26.651Z,16.27
2018-04-23T04:12:35.531Z,20.67
2018-04-23T04:14:44.539Z,21.53
2018-04-23T04:16:53.127Z,22.70
2018-04-23T04:18:55.846Z,16.93
2018-04-23T04:20:58.583Z,18.70
2018-04-23T04:23:01.310Z,18.10
2018-04-23T04:25:04.019Z,19.03
2018-04-23T04:29:16.320Z,19.97
2018-04-23T04:31:19.037Z,19.97
2018-04-23T04:33:21.937Z,17.30
2018-04-23T04:35:24.657Z,17.60
2018-04-23T04:37:27.373Z,19.23
2018-04-23T04:39:30.092Z,19.20
2018-04-23T04:41:32.827Z,16.80
2018-04-23T04:43:35.551Z,18.83
2018-04-23T04:45:38.267Z,17.23
2018-04-23T04:47:40.992Z,18.60
2018-04-23T04:49:43.730Z,25.60
2018-04-23T04:51:46.454Z,19.53
2018-04-23T04:53:49.169Z,20.07
2018-04-23T04:55:51.920Z,20.20
2018-04-23T04:57:54.631Z,20.67
2018-04-23T04:59:57.364Z,22.50
2018-04-23T05:02:00.081Z,23.40
2018-04-23T05:04:02.802Z,21.47
2018-04-23T05:06:05.518Z,20.10
2018-04-23T05:08:08.267Z,20.57
2018-04-23T05:10:10.991Z,22.93
2018-04-23T05:12:13.703Z,19.23
2018-04-23T05:14:16.455Z,21.87
2018-04-23T05:16:19.171Z,21.23
2018-04-23T05:18:21.908Z,27.40
2018-04-23T05:20:24.633Z,22.20
2018-04-23T05:22:27.341Z,21.37
2018-04-23T05:24:30.053Z,20.93
2018-04-23T05:26:32.775Z,22.80
2018-04-23T05:28:35.507Z,22.60
2018-04-23T05:30:38.222Z,20.13
2018-04-23T05:32:40.950Z,24.47
2018-04-23T05:34:43.670Z,26.60
2018-04-23T05:36:47.178Z,28.70
2018-04-23T05:38:49.896Z,23.27
2018-04-23T05:40:52.631Z,22.90
2018-04-23T05:42:55.365Z,23.87
2018-04-23T05:44:58.082Z,24.93
2018-04-23T05:47:00.813Z,26.03
2018-04-23T05:49:03.555Z,23.67
2018-04-23T05:51:06.266Z,29.53
2018-04-23T05:53:09.119Z,22.10
2018-04-23T05:55:11.834Z,23.10
2018-04-23T05:57:14.556Z,26.73
2018-04-23T05:59:17.459Z,25.40
2018-04-23T06:01:20.182Z,24.80
2018-04-23T06:03:23.011Z,26.20
2018-04-23T06:05:25.736Z,29.80
2018-04-23T06:07:28.470Z,21.47
2018-04-23T06:09:31.206Z,28.63
2018-04-23T06:11:34.075Z,19.77
2018-04-23T06:13:36.793Z,26.83
2018-04-23T06:15:39.526Z,25.90
2018-04-23T06:17:42.289Z,24.43
2018-04-23T06:19:45.065Z,22.67
2018-04-23T06:21:47.770Z,27.93
2018-04-23T06:23:50.509Z,23.80
2018-04-23T06:25:53.326Z,30.60
2018-04-23T06:27:56.052Z,28.70
2018-04-23T06:29:58.761Z,30.30
2018-04-23T06:32:01.461Z,32.60
2018-04-23T06:34:04.193Z,32.97
2018-04-23T06:36:06.921Z,43.70
2018-04-23T06:38:09.632Z,34.90
2018-04-23T06:40:12.368Z,34.10
2018-04-23T06:42:15.145Z,35.03
2018-04-23T06:44:17.977Z,35.77
2018-04-23T06:46:20.863Z,29.80
2018-04-23T06:48:23.594Z,33.37
2018-04-23T06:50:26.321Z,33.47
2018-04-23T06:52:29.033Z,34.07
2018-04-23T06:54:31.737Z,37.87
2018-04-23T06:56:34.453Z,32.77
2018-04-23T06:58:37.166Z,35.73
2018-04-23T07:00:39.881Z,31.80
2018-04-23T07:02:42.597Z,35.20
2018-04-23T07:04:46.403Z,37.67
2018-04-23T07:06:49.816Z,37.33
2018-04-23T07:08:52.554Z,33.80
2018-04-23T07:10:55.521Z,35.50
2018-04-23T07:12:58.230Z,41.50
2018-04-23T07:15:00.973Z,37.53
2018-04-23T07:17:04.569Z,36.93
2018-04-23T07:19:07.297Z,39.37
2018-04-23T07:21:10.005Z,35.60
2018-04-23T07:23:12.734Z,39.77
2018-04-23T07:25:15.444Z,52.10
2018-04-23T07:27:18.145Z,38.37
2018-04-23T07:29:20.896Z,40.13
2018-04-23T07:31:23.577Z,51.43
2018-04-23T07:33:26.273Z,75.10
2018-04-23T07:35:28.977Z,41.80
2018-04-23T07:37:31.686Z,40.43
2018-04-23T07:39:34.397Z,44.47
2018-04-23T07:41:37.122Z,46.30
2018-04-23T07:43:39.829Z,40.63
2018-04-23T07:45:42.537Z,48.30
2018-04-23T07:47:45.508Z,47.53
2018-04-23T07:49:48.226Z,46.97
2018-04-23T07:51:50.945Z,44.67
2018-04-23T07:53:53.950Z,57.10
2018-04-23T07:55:56.972Z,48.27
2018-04-23T07:57:59.759Z,61.70
2018-04-23T08:00:02.611Z,57.80
2018-04-23T08:02:05.405Z,54.37
2018-04-23T08:04:08.110Z,49.77
2018-04-23T08:06:10.854Z,48.77
2018-04-23T08:08:13.613Z,43.73
2018-04-23T08:10:16.469Z,50.47
2018-04-23T08:12:19.459Z,42.87
2018-04-23T08:14:22.226Z,44.27
2018-04-23T08:16:24.933Z,44.77
2018-04-23T08:18:27.650Z,44.00
2018-04-23T08:20:30.628Z,46.20
2018-04-23T08:22:33.335Z,48.43
2018-04-23T08:24:36.271Z,42.27
2018-04-23T08:26:39.019Z,39.20
2018-04-23T08:28:41.841Z,45.83
2018-04-23T08:30:44.541Z,43.37
2018-04-23T08:32:47.266Z,37.33
2018-04-23T08:34:49.978Z,40.50
2018-04-23T08:36:52.686Z,44.90
2018-04-23T08:38:55.673Z,44.07
2018-04-23T08:40:58.374Z,52.13
2018-04-23T08:43:01.077Z,48.90
2018-04-23T08:45:04.069Z,43.17
2018-04-23T08:47:06.778Z,47.90
2018-04-23T08:49:09.481Z,37.77
2018-04-23T08:51:12.189Z,44.33
2018-04-23T08:53:14.910Z,40.93
2018-04-23T08:55:17.643Z,45.77
2018-04-23T08:57:20.349Z,46.40
2018-04-23T08:59:23.052Z,47.63
2018-04-23T09:01:25.929Z,43.30
2018-04-23T09:03:28.605Z,58.13
2018-04-23T09:05:31.325Z,48.63
2018-04-23T09:07:34.066Z,44.13
2018-04-23T09:09:36.773Z,49.27
2018-04-23T09:11:39.494Z,47.43
2018-04-23T09:13:42.553Z,49.83
2018-04-23T09:15:45.273Z,46.43
2018-04-23T09:17:47.979Z,47.23
2018-04-23T09:19:50.718Z,45.17
2018-04-23T09:21:53.445Z,49.13
2018-04-23T09:23:56.145Z,51.57
2018-04-23T09:25:58.865Z,52.93
2018-04-23T09:28:01.589Z,51.37
2018-04-23T09:30:04.307Z,62.00
2018-04-23T09:32:07.030Z,42.97
2018-04-23T09:34:09.773Z,56.97
2018-04-23T09:36:12.534Z,53.30
2018-04-23T09:38:15.261Z,70.20
2018-04-23T09:40:17.977Z,56.60
2018-04-23T09:42:20.702Z,47.57
2018-04-23T09:44:23.525Z,53.73
2018-04-23T09:46:26.189Z,49.20
2018-04-23T09:48:28.929Z,51.43
2018-04-23T09:50:31.649Z,55.10
2018-04-23T09:52:34.509Z,52.40
2018-04-23T09:54:37.230Z,51.33
2018-04-23T09:56:39.966Z,58.73
2018-04-23T09:58:43.185Z,54.30
2018-04-23T10:00:45.933Z,51.30
2018-04-23T10:02:48.681Z,54.80
2018-04-23T10:04:51.437Z,55.60
2018-04-23T10:06:54.186Z,51.67
2018-04-23T10:08:56.909Z,87.17
2018-04-23T10:10:59.618Z,82.80
2018-04-23T10:13:02.828Z,50.43
2018-04-23T10:15:05.565Z,42.83
2018-04-23T10:17:08.320Z,44.33
2018-04-23T10:19:11.245Z,36.53
2018-04-23T10:21:13.963Z,34.23
2018-04-23T10:23:16.785Z,38.60
2018-04-23T10:25:19.506Z,39.30
2018-04-23T10:27:22.237Z,27.43
2018-04-23T10:29:25.120Z,31.17
2018-04-23T10:31:27.881Z,30.20
2018-04-23T10:33:30.546Z,28.67
2018-04-23T10:35:33.258Z,30.43
2018-04-23T10:37:35.969Z,25.57
2018-04-23T10:39:38.683Z,23.60
2018-04-23T10:41:41.394Z,26.43
2018-04-23T10:43:44.090Z,21.77
2018-04-23T10:45:46.986Z,19.57
2018-04-23T10:47:49.764Z,21.63
2018-04-23T10:49:52.481Z,18.60
2018-04-23T10:51:55.229Z,16.10
2018-04-23T10:53:57.945Z,13.60
2018-04-23T10:56:03.688Z,13.53
2018-04-23T10:58:06.422Z,11.27
2018-04-23T11:00:09.147Z,14.87
2018-04-23T11:02:12.241Z,9.73
2018-04-23T11:04:15.847Z,11.40
2018-04-23T11:06:18.707Z,11.83
2018-04-23T11:08:22.445Z,12.03
2018-04-23T11:10:25.184Z,15.17
2018-04-23T11:12:27.904Z,15.60
2018-04-23T11:14:30.614Z,8.43
2018-04-23T11:16:33.353Z,8.80
2018-04-23T11:18:36.065Z,7.77
2018-04-23T11:20:38.889Z,9.87
2018-04-23T11:22:41.609Z,10.03
2018-04-23T11:24:44.355Z,7.13
2018-04-23T11:26:47.345Z,27.97
2018-04-23T11:28:50.060Z,16.60
2018-04-23T11:30:52.767Z,9.43
2018-04-23T11:32:55.758Z,6.87
2018-04-23T11:34:58.478Z,6.30
2018-04-23T11:37:01.192Z,10.30
2018-04-23T11:39:04.803Z,7.03
2018-04-23T11:41:07.546Z,6.30
2018-04-23T11:43:10.270Z,5.60
2018-04-23T11:45:13.046Z,4.93
2018-04-23T11:47:15.741Z,4.57
2018-04-23T11:49:18.481Z,5.50
2018-04-23T11:51:21.197Z,3.90
2018-04-23T11:53:24.087Z,5.03
2018-04-23T11:55:26.822Z,4.63
2018-04-23T11:57:29.535Z,4.57
2018-04-23T11:59:32.268Z,6.53
2018-04-23T12:01:34.983Z,5.10
2018-04-23T12:03:37.733Z,7.50
2018-04-23T12:05:40.448Z,7.00
2018-04-23T12:07:43.183Z,5.37
2018-04-23T12:09:45.896Z,8.40
2018-04-23T12:11:48.658Z,18.03
2018-04-23T12:13:51.367Z,10.33
2018-04-23T12:15:54.091Z,13.97
2018-04-23T12:17:56.801Z,15.80
2018-04-23T12:19:59.611Z,15.63
2018-04-23T12:22:02.338Z,7.37
2018-04-23T12:24:05.056Z,10.70
2018-04-23T12:26:07.983Z,7.43
2018-04-23T12:28:10.711Z,5.20
2018-04-23T12:30:13.644Z,8.87
2018-04-23T12:32:16.364Z,14.43
2018-04-23T12:34:19.080Z,3.60
2018-04-23T12:36:21.815Z,6.03
2018-04-23T12:38:24.530Z,13.07
2018-04-23T12:40:27.265Z,13.13
2018-04-23T12:42:29.981Z,4.00
2018-04-23T12:44:32.706Z,8.27
2018-04-23T12:46:35.413Z,4.07
2018-04-23T12:48:38.162Z,4.50
2018-04-23T12:50:40.895Z,31.63
2018-04-23T12:52:43.619Z,5.20
2018-04-23T12:54:46.342Z,6.53
2018-04-23T12:56:49.067Z,5.60
2018-04-23T12:58:51.784Z,5.63
2018-04-23T13:00:54.502Z,3.53
2018-04-23T13:02:57.405Z,4.03
2018-04-23T13:05:00.124Z,4.40
2018-04-23T13:07:02.843Z,5.93
2018-04-23T13:09:05.802Z,5.43
2018-04-23T13:11:08.521Z,4.20
2018-04-23T13:13:11.293Z,3.83
2018-04-23T13:15:14.006Z,4.33
2018-04-23T13:17:16.721Z,4.30
2018-04-23T13:19:19.450Z,4.00
2018-04-23T13:23:31.908Z,5.87
2018-04-23T13:25:34.618Z,6.03
2018-04-23T13:27:37.737Z,7.97
2018-04-23T13:29:40.761Z,5.13
2018-04-23T13:31:43.507Z,12.40
2018-04-23T13:33:46.315Z,9.63
2018-04-23T13:35:49.034Z,9.07
2018-04-23T13:37:52.150Z,11.40
2018-04-23T13:39:55.241Z,5.70
2018-04-23T13:41:57.963Z,14.27
2018-04-23T13:44:00.702Z,9.80
2018-04-23T13:46:03.453Z,19.20
2018-04-23T13:48:06.249Z,7.20
2018-04-23T13:50:09.050Z,12.77
2018-04-23T13:52:11.765Z,14.17
2018-04-23T13:54:14.472Z,15.23
2018-04-23T13:56:17.240Z,13.07
2018-04-23T13:58:19.937Z,18.07
2018-04-23T14:00:22.650Z,16.47
2018-04-23T14:02:25.398Z,16.33
2018-04-23T14:04:28.241Z,17.43
2018-04-23T14:06:30.998Z,39.03
2018-04-23T14:08:33.743Z,33.27
2018-04-23T14:10:36.555Z,22.73
2018-04-23T14:12:39.279Z,18.23
2018-04-23T14:14:41.999Z,11.23
2018-04-23T14:16:44.741Z,9.83
2018-04-23T14:18:47.518Z,9.70
2018-04-23T14:20:50.278Z,13.23
2018-04-23T14:22:53.433Z,15.13
2018-04-23T14:24:56.177Z,12.77
2018-04-23T14:26:58.907Z,8.30
2018-04-23T14:29:01.616Z,7.33
2018-04-23T14:31:04.459Z,8.20
2018-04-23T14:33:07.185Z,7.50
2018-04-23T14:35:10.036Z,8.07
2018-04-23T14:37:12.779Z,11.13
2018-04-23T14:39:15.521Z,7.33
2018-04-23T14:41:18.295Z,8.00
2018-04-23T14:43:21.027Z,7.93
2018-04-23T14:45:23.824Z,7.97
2018-04-23T14:47:26.686Z,8.47
2018-04-23T14:49:29.413Z,7.50
2018-04-23T14:51:32.117Z,8.80
2018-04-23T14:53:34.929Z,8.47
2018-04-23T14:55:37.701Z,7.50
2018-04-23T14:57:40.409Z,8.90
2018-04-23T14:59:43.174Z,8.10
2018-04-23T15:01:46.355Z,9.73
2018-04-23T15:03:49.113Z,106.87
2018-04-23T15:05:51.877Z,14.40
2018-04-23T15:07:54.641Z,7.10
2018-04-23T15:09:57.389Z,7.10
2018-04-23T15:12:00.147Z,9.47
2018-04-23T15:14:02.894Z,8.10
2018-04-23T15:16:05.649Z,7.00
2018-04-23T15:18:08.393Z,7.67
2018-04-23T15:20:11.113Z,7.70
2018-04-23T15:22:13.861Z,7.03
2018-04-23T15:24:17.874Z,7.50
2018-04-23T15:26:20.585Z,9.17
2018-04-23T15:28:25.145Z,14.10
2018-04-23T15:30:27.901Z,11.80
2018-04-23T15:32:30.650Z,9.67
2018-04-23T15:34:33.557Z,8.13
2018-04-23T15:36:36.268Z,7.47
2018-04-23T15:38:38.987Z,7.97
2018-04-23T15:40:41.728Z,8.00
2018-04-23T15:42:44.458Z,8.67
2018-04-23T15:44:47.177Z,7.43
2018-04-23T15:46:49.925Z,7.00
2018-04-23T15:48:52.650Z,10.83
2018-04-23T15:50:55.361Z,35.60
2018-04-23T15:52:58.093Z,12.63
2018-04-23T15:55:00.805Z,17.77
2018-04-23T15:57:03.530Z,8.07
2018-04-23T15:59:06.665Z,15.73
2018-04-23T16:01:09.393Z,10.83
2018-04-23T16:03:12.118Z,6.43
2018-04-23T16:05:14.858Z,7.27
2018-04-23T16:07:17.594Z,10.27
2018-04-23T16:09:20.515Z,6.30
2018-04-23T16:11:23.245Z,9.73
2018-04-23T16:13:25.986Z,11.30
2018-04-23T16:15:28.756Z,12.23
2018-04-23T16:17:31.481Z,7.70
2018-04-23T16:19:34.214Z,14.43
2018-04-23T16:21:37.013Z,8.70
2018-04-23T16:23:39.743Z,7.17
2018-04-23T16:25:42.472Z,8.40
2018-04-23T16:27:45.224Z,7.70
2018-04-23T16:29:47.980Z,6.40
2018-04-23T16:31:50.710Z,5.07
2018-04-23T16:34:00.457Z,4.93
2018-04-23T16:36:03.200Z,6.57
2018-04-23T16:38:05.982Z,6.10
2018-04-23T16:40:08.728Z,6.20
2018-04-23T16:42:11.453Z,6.70
2018-04-23T16:44:14.175Z,7.67
2018-04-23T16:46:16.916Z,7.53
2018-04-23T16:48:19.643Z,6.87
2018-04-23T16:50:22.584Z,9.80
2018-04-23T16:52:25.294Z,10.73
2018-04-23T16:54:28.035Z,5.80
2018-04-23T16:56:30.742Z,9.40
2018-04-23T16:58:33.471Z,7.60
2018-04-23T17:00:36.239Z,4.60
2018-04-23T17:02:38.968Z,4.17
2018-04-23T17:04:41.744Z,5.10
2018-04-23T17:06:44.571Z,7.60
2018-04-23T17:08:47.273Z,6.33
2018-04-23T17:10:50.013Z,6.50
2018-04-23T17:12:52.730Z,15.63
2018-04-23T17:14:55.462Z,9.53
2018-04-23T17:16:58.181Z,7.53
2018-04-23T17:19:00.911Z,6.97
2018-04-23T17:21:03.661Z,7.00
2018-04-23T17:23:06.406Z,5.83
2018-04-23T17:25:09.126Z,4.90
2018-04-23T17:27:11.874Z,8.10
2018-04-23T17:29:14.601Z,8.23
2018-04-23T17:31:17.414Z,6.47
2018-04-23T17:33:20.140Z,8.83
2018-04-23T17:35:22.871Z,6.27
2018-04-23T17:37:25.631Z,7.67
2018-04-23T17:39:28.358Z,5.83
2018-04-23T17:41:31.079Z,4.60
2018-04-23T17:43:33.824Z,9.67
2018-04-23T17:45:36.561Z,5.20
2018-04-23T17:47:39.308Z,4.20
2018-04-23T17:49:42.053Z,6.03
2018-04-23T17:51:44.780Z,3.83
2018-04-23T17:53:47.512Z,5.10
2018-04-23T17:55:50.245Z,4.87
2018-04-23T17:57:52.971Z,5.50
2018-04-23T17:59:55.701Z,6.47
2018-04-23T18:01:58.433Z,8.60
2018-04-23T18:04:01.151Z,5.60
2018-04-23T18:06:03.974Z,7.97
2018-04-23T18:08:06.716Z,6.77
2018-04-23T18:10:09.425Z,6.53
2018-04-23T18:12:12.242Z,7.17
2018-04-23T18:14:14.946Z,7.30
2018-04-23T18:16:17.682Z,7.53
2018-04-23T18:18:20.409Z,8.43
2018-04-23T18:20:23.123Z,9.97
2018-04-23T18:22:25.858Z,7.70
2018-04-23T18:24:28.591Z,6.30
2018-04-23T18:26:31.361Z,5.60
2018-04-23T18:28:34.082Z,6.80
2018-04-23T18:30:36.802Z,4.40
2018-04-23T18:32:39.530Z,7.40
2018-04-23T18:34:42.441Z,7.30
2018-04-23T18:36:45.206Z,5.80
2018-04-23T18:38:47.928Z,5.83
2018-04-23T18:40:50.654Z,6.07
2018-04-23T18:42:53.378Z,9.40
2018-04-23T18:44:56.083Z,12.60
2018-04-23T18:46:58.786Z,7.63
2018-04-23T18:49:01.634Z,10.07
2018-04-23T18:51:04.362Z,6.23
2018-04-23T18:53:07.178Z,8.30
2018-04-23T18:55:09.918Z,3.70
2018-04-23T18:57:12.652Z,9.10
2018-04-23T18:59:15.367Z,7.37
2018-04-23T19:01:18.168Z,4.33
2018-04-23T19:03:20.944Z,5.07
2018-04-23T19:05:23.667Z,9.97
2018-04-23T19:07:26.391Z,9.30
2018-04-23T19:09:29.120Z,10.00
2018-04-23T19:11:32.045Z,6.33
2018-04-23T19:13:34.794Z,8.10
2018-04-23T19:15:44.326Z,8.50
2018-04-23T19:17:47.100Z,8.37
2018-04-23T19:19:49.855Z,7.53
2018-04-23T19:21:52.615Z,9.03
2018-04-23T19:23:55.553Z,6.27
2018-04-23T19:26:14.193Z,7.63
2018-04-23T19:28:16.957Z,5.80
2018-04-23T19:30:20.057Z,10.47
2018-04-23T19:32:22.801Z,6.73
2018-04-23T19:34:25.629Z,10.97
2018-04-23T19:36:28.375Z,12.20
2018-04-23T19:38:31.202Z,6.63
2018-04-23T19:40:33.957Z,6.97
2018-04-23T19:42:36.690Z,9.50
2018-04-23T19:44:39.496Z,7.57
2018-04-23T19:46:42.257Z,10.90
2018-04-23T19:48:45.002Z,10.23
2018-04-23T19:50:47.930Z,6.40
2018-04-23T19:52:50.689Z,9.93
2018-04-23T19:54:53.471Z,6.83
2018-04-23T19:56:56.399Z,5.30
2018-04-23T19:58:59.326Z,5.20
2018-04-23T20:01:02.085Z,7.57
2018-04-23T20:03:04.878Z,8.97
2018-04-23T20:05:07.650Z,10.17
2018-04-23T20:07:10.537Z,8.10
2018-04-23T20:09:13.433Z,8.50
2018-04-23T20:11:16.157Z,7.90
2018-04-23T20:13:18.901Z,11.13
2018-04-23T20:15:21.649Z,7.13
2018-04-23T20:17:24.422Z,6.87
2018-04-23T20:19:27.381Z,7.90
2018-04-23T20:21:30.130Z,8.80
2018-04-23T20:23:32.889Z,7.90
2018-04-23T20:25:35.957Z,5.07
2018-04-23T20:27:38.704Z,7.87
2018-04-23T20:29:41.433Z,6.10
2018-04-23T20:31:44.205Z,6.23
2018-04-23T20:33:46.994Z,5.07
2018-04-23T20:35:49.766Z,7.50
2018-04-23T20:37:52.501Z,9.80
2018-04-23T20:39:55.264Z,11.97
2018-04-23T20:41:58.029Z,7.97
2018-04-23T20:44:00.789Z,10.67
2018-04-23T20:46:03.890Z,8.13
2018-04-23T20:48:06.702Z,11.87
2018-04-23T20:50:09.448Z,12.23
2018-04-23T20:52:12.178Z,7.43
2018-04-23T20:54:14.946Z,8.10
2018-04-23T20:56:17.707Z,13.73
2018-04-23T20:58:20.454Z,8.00
2018-04-23T21:00:23.192Z,8.27
2018-04-23T21:02:25.946Z,7.80
2018-04-23T21:04:28.731Z,9.70
2018-04-23T21:06:31.479Z,11.37
2018-04-23T21:08:34.263Z,7.50
2018-04-23T21:10:37.035Z,11.63
2018-04-23T21:12:39.901Z,10.17
2018-04-23T21:14:42.681Z,5.70
2018-04-23T21:16:45.503Z,7.33
2018-04-23T21:18:48.496Z,15.00
2018-04-23T21:20:51.308Z,7.23
2018-04-23T21:22:54.210Z,6.97
2018-04-23T21:24:56.978Z,11.93
2018-04-23T21:26:59.771Z,6.60
2018-04-23T21:29:02.549Z,10.10
2018-04-23T21:31:05.293Z,10.40
2018-04-23T21:33:08.085Z,7.87
2018-04-23T21:35:10.847Z,11.13
2018-04-23T21:37:13.622Z,12.30
2018-04-23T21:39:16.355Z,10.23
2018-04-23T21:41:19.091Z,12.10
2018-04-23T21:43:21.813Z,11.27
2018-04-23T21:45:24.901Z,8.80
2018-04-23T21:47:27.651Z,9.97
2018-04-23T21:49:30.387Z,11.80
2018-04-23T21:51:33.118Z,11.97
2018-04-23T21:53:35.869Z,9.70
2018-04-23T21:55:38.638Z,13.23
2018-04-23T21:57:41.363Z,9.87
2018-04-23T21:59:44.066Z,13.00
2018-04-23T22:01:46.856Z,8.47
2018-04-23T22:03:49.557Z,9.47
2018-04-23T22:05:52.350Z,10.40
2018-04-23T22:07:55.079Z,9.43
2018-04-23T22:09:57.834Z,13.03
2018-04-23T22:12:00.549Z,12.00
2018-04-23T22:14:03.319Z,12.03
2018-04-23T22:16:06.050Z,10.10
2018-04-23T22:18:08.816Z,10.70
2018-04-23T22:20:11.504Z,11.50
2018-04-23T22:22:14.251Z,8.67
2018-04-23T22:24:16.986Z,12.57
2018-04-23T22:26:19.723Z,10.40
2018-04-23T22:28:22.474Z,15.60
2018-04-23T22:30:25.206Z,9.37
2018-04-23T22:32:27.936Z,11.83
2018-04-23T22:34:30.683Z,12.87
2018-04-23T22:36:33.409Z,13.43
2018-04-23T22:38:36.138Z,9.53
2018-04-23T22:40:39.129Z,10.87
2018-04-23T22:42:41.878Z,12.40
2018-04-23T22:44:44.611Z,16.30
2018-04-23T22:46:47.337Z,15.33
2018-04-23T22:48:50.059Z,13.10
2018-04-23T22:50:52.787Z,14.20
2018-04-23T22:52:55.544Z,10.03
2018-04-23T22:54:58.565Z,11.30
2018-04-23T22:57:02.158Z,10.00
2018-04-23T22:59:04.885Z,10.70
2018-04-23T23:01:08.774Z,8.13
2018-04-23T23:03:11.515Z,15.27
2018-04-23T23:05:14.279Z,11.07
2018-04-23T23:07:17.026Z,10.60
2018-04-23T23:09:19.762Z,12.83
2018-04-23T23:11:22.504Z,11.57
2018-04-23T23:13:25.218Z,18.77
2018-04-23T23:15:27.938Z,11.30
2018-04-23T23:17:30.649Z,13.13
2018-04-23T23:19:33.394Z,10.23
2018-04-23T23:21:36.301Z,17.33
2018-04-23T23:23:39.011Z,10.93
2018-04-23T23:25:41.754Z,11.30
2018-04-23T23:27:44.499Z,11.20
2018-04-23T23:29:47.243Z,13.53
2018-04-23T23:31:49.971Z,10.50
2018-04-23T23:33:52.686Z,11.23
2018-04-23T23:35:55.446Z,14.00
2018-04-23T23:37:58.163Z,17.40
2018-04-23T23:40:00.888Z,14.77
2018-04-23T23:42:03.623Z,10.53
2018-04-23T23:44:06.349Z,10.73
2018-04-23T23:46:09.066Z,15.43
2018-04-23T23:48:11.806Z,16.67
2018-04-23T23:50:14.548Z,14.50
2018-04-23T23:52:17.251Z,12.27
2018-04-23T23:54:20.014Z,12.20
2018-04-23T23:56:22.741Z,13.20
2018-04-23T23:58:25.475Z,17.67
